sensor_id;sensor_type;location;lat;lon;timestamp;P1;durP1;ratioP1;P2;durP2;ratioP2
39486;SDS011;25173;50.430;18.926;2022-11-20T00:02:02;557.95;;;343.80;;
39486;SDS011;25173;50.430;18.926;2022-11-20T00:05:03;551.03;;;339.25;;
39486;SDS011;25173;50.430;18.926;2022-11-20T00:08:04;548.38;;;341.08;;
39486;SDS011;25173;50.430;18.926;2022-11-20T00:11:05;557.92;;;345.77;;
39486;SDS011;25173;50.430;18.926;2022-11-20T00:14:10;551.60;;;337.13;;
39486;SDS011;25173;50.430;18.926;2022-11-20T00:17:11;547.63;;;344.13;;
39486;SDS011;25173;50.430;18.926;2022-11-20T00:20:12;552.20;;;340.67;;
39486;SDS011;25173;50.430;18.926;2022-11-20T00:23:13;541.92;;;330.75;;
39486;SDS011;25173;50.430;18.926;2022-11-20T00:26:14;553.25;;;344.73;;
39486;SDS011;25173;50.430;18.926;2022-11-20T00:29:16;545.78;;;337.77;;
39486;SDS011;25173;50.430;18.926;2022-11-20T00:32:17;539.28;;;331.35;;
39486;SDS011;25173;50.430;18.926;2022-11-20T00:35:18;550.78;;;333.65;;
39486;SDS011;25173;50.430;18.926;2022-11-20T00:38:18;555.53;;;337.15;;
39486;SDS011;25173;50.430;18.926;2022-11-20T00:41:19;546.05;;;326.77;;
39486;SDS011;25173;50.430;18.926;2022-11-20T00:44:19;534.30;;;332.88;;
39486;SDS011;25173;50.430;18.926;2022-11-20T00:47:20;539.85;;;335.35;;
39486;SDS011;25173;50.430;18.926;2022-11-20T00:50:20;528.50;;;327.05;;
39486;SDS011;25173;50.430;18.926;2022-11-20T00:53:21;541.30;;;332.38;;
39486;SDS011;25173;50.430;18.926;2022-11-20T00:56:22;538.50;;;328.50;;
39486;SDS011;25173;50.430;18.926;2022-11-20T00:59:22;546.00;;;335.23;;
39486;SDS011;25173;50.430;18.926;2022-11-20T01:02:23;533.17;;;331.40;;
39486;SDS011;25173;50.430;18.926;2022-11-20T01:05:23;518.08;;;316.48;;
39486;SDS011;25173;50.430;18.926;2022-11-20T01:08:24;497.75;;;304.10;;
39486;SDS011;25173;50.430;18.926;2022-11-20T01:11:29;527.00;;;317.73;;
39486;SDS011;25173;50.430;18.926;2022-11-20T01:14:34;516.20;;;312.60;;
39486;SDS011;25173;50.430;18.926;2022-11-20T01:17:35;479.67;;;291.10;;
39486;SDS011;25173;50.430;18.926;2022-11-20T01:20:36;476.15;;;285.77;;
39486;SDS011;25173;50.430;18.926;2022-11-20T01:23:38;458.98;;;275.98;;
39486;SDS011;25173;50.430;18.926;2022-11-20T01:26:40;454.50;;;279.65;;
39486;SDS011;25173;50.430;18.926;2022-11-20T01:29:42;470.02;;;288.65;;
39486;SDS011;25173;50.430;18.926;2022-11-20T01:32:42;473.92;;;286.02;;
39486;SDS011;25173;50.430;18.926;2022-11-20T01:35:43;428.17;;;246.90;;
39486;SDS011;25173;50.430;18.926;2022-11-20T01:38:43;452.42;;;247.52;;
39486;SDS011;25173;50.430;18.926;2022-11-20T01:41:44;429.63;;;235.43;;
39486;SDS011;25173;50.430;18.926;2022-11-20T01:49:08;548.42;;;194.45;;
39486;SDS011;25173;50.430;18.926;2022-11-20T01:52:22;514.88;;;181.95;;
39486;SDS011;25173;50.430;18.926;2022-11-20T01:55:29;458.95;;;174.95;;
39486;SDS011;25173;50.430;18.926;2022-11-20T01:58:33;509.45;;;182.25;;
39486;SDS011;25173;50.430;18.926;2022-11-20T02:01:38;587.30;;;182.25;;
39486;SDS011;25173;50.430;18.926;2022-11-20T02:04:39;423.35;;;179.35;;
39486;SDS011;25173;50.430;18.926;2022-11-20T02:07:40;539.40;;;193.13;;
39486;SDS011;25173;50.430;18.926;2022-11-20T02:10:41;411.02;;;195.57;;
39486;SDS011;25173;50.430;18.926;2022-11-20T02:13:42;325.50;;;176.05;;
39486;SDS011;25173;50.430;18.926;2022-11-20T02:16:46;350.65;;;184.93;;
39486;SDS011;25173;50.430;18.926;2022-11-20T02:19:47;384.30;;;189.38;;
39486;SDS011;25173;50.430;18.926;2022-11-20T02:22:50;335.00;;;181.90;;
39486;SDS011;25173;50.430;18.926;2022-11-20T02:26:16;349.45;;;180.82;;
39486;SDS011;25173;50.430;18.926;2022-11-20T02:29:19;346.50;;;186.80;;
39486;SDS011;25173;50.430;18.926;2022-11-20T02:32:27;342.67;;;186.85;;
39486;SDS011;25173;50.430;18.926;2022-11-20T02:38:30;337.10;;;180.35;;
39486;SDS011;25173;50.430;18.926;2022-11-20T02:41:35;349.42;;;185.45;;
39486;SDS011;25173;50.430;18.926;2022-11-20T02:44:36;329.38;;;175.30;;
39486;SDS011;25173;50.430;18.926;2022-11-20T02:47:37;320.52;;;174.55;;
39486;SDS011;25173;50.430;18.926;2022-11-20T02:50:38;326.67;;;167.77;;
39486;SDS011;25173;50.430;18.926;2022-11-20T02:53:40;325.02;;;172.48;;
39486;SDS011;25173;50.430;18.926;2022-11-20T02:56:40;318.48;;;174.32;;
39486;SDS011;25173;50.430;18.926;2022-11-20T02:59:41;315.42;;;166.05;;
39486;SDS011;25173;50.430;18.926;2022-11-20T03:02:42;321.77;;;172.05;;
39486;SDS011;25173;50.430;18.926;2022-11-20T03:05:42;334.10;;;177.20;;
39486;SDS011;25173;50.430;18.926;2022-11-20T03:08:43;309.80;;;172.65;;
39486;SDS011;25173;50.430;18.926;2022-11-20T03:11:43;310.95;;;170.93;;
39486;SDS011;25173;50.430;18.926;2022-11-20T03:14:44;316.38;;;170.02;;
39486;SDS011;25173;50.430;18.926;2022-11-20T03:17:45;312.15;;;167.23;;
39486;SDS011;25173;50.430;18.926;2022-11-20T03:20:45;303.90;;;165.93;;
39486;SDS011;25173;50.430;18.926;2022-11-20T03:23:46;312.90;;;168.95;;
39486;SDS011;25173;50.430;18.926;2022-11-20T03:26:47;305.83;;;165.82;;
39486;SDS011;25173;50.430;18.926;2022-11-20T03:29:47;298.52;;;161.00;;
39486;SDS011;25173;50.430;18.926;2022-11-20T03:32:48;300.92;;;161.40;;
39486;SDS011;25173;50.430;18.926;2022-11-20T03:35:48;293.33;;;155.73;;
39486;SDS011;25173;50.430;18.926;2022-11-20T03:38:49;287.27;;;154.80;;
39486;SDS011;25173;50.430;18.926;2022-11-20T03:41:50;280.52;;;150.90;;
39486;SDS011;25173;50.430;18.926;2022-11-20T03:44:50;282.90;;;152.57;;
39486;SDS011;25173;50.430;18.926;2022-11-20T03:47:51;267.55;;;150.45;;
39486;SDS011;25173;50.430;18.926;2022-11-20T03:50:52;273.88;;;150.27;;
39486;SDS011;25173;50.430;18.926;2022-11-20T03:53:54;267.30;;;146.70;;
39486;SDS011;25173;50.430;18.926;2022-11-20T03:56:56;270.90;;;146.25;;
39486;SDS011;25173;50.430;18.926;2022-11-20T03:59:57;267.33;;;145.55;;
39486;SDS011;25173;50.430;18.926;2022-11-20T04:02:58;262.85;;;143.35;;
39486;SDS011;25173;50.430;18.926;2022-11-20T04:06:04;255.68;;;139.55;;
39486;SDS011;25173;50.430;18.926;2022-11-20T04:12:16;219.27;;;122.47;;
39486;SDS011;25173;50.430;18.926;2022-11-20T04:15:16;226.65;;;125.72;;
39486;SDS011;25173;50.430;18.926;2022-11-20T04:18:17;215.68;;;120.13;;
39486;SDS011;25173;50.430;18.926;2022-11-20T04:21:17;193.73;;;110.05;;
39486;SDS011;25173;50.430;18.926;2022-11-20T04:24:18;206.88;;;116.00;;
39486;SDS011;25173;50.430;18.926;2022-11-20T04:27:19;183.20;;;103.93;;
39486;SDS011;25173;50.430;18.926;2022-11-20T04:30:19;168.52;;;97.25;;
39486;SDS011;25173;50.430;18.926;2022-11-20T04:33:20;183.32;;;104.63;;
39486;SDS011;25173;50.430;18.926;2022-11-20T04:36:21;174.82;;;99.43;;
39486;SDS011;25173;50.430;18.926;2022-11-20T04:39:24;180.68;;;102.22;;
39486;SDS011;25173;50.430;18.926;2022-11-20T04:42:25;186.85;;;103.97;;
39486;SDS011;25173;50.430;18.926;2022-11-20T04:45:28;196.75;;;108.55;;
39486;SDS011;25173;50.430;18.926;2022-11-20T04:48:29;206.43;;;114.95;;
39486;SDS011;25173;50.430;18.926;2022-11-20T04:51:30;187.18;;;106.40;;
39486;SDS011;25173;50.430;18.926;2022-11-20T04:54:31;235.88;;;128.52;;
39486;SDS011;25173;50.430;18.926;2022-11-20T04:57:32;219.65;;;121.38;;
39486;SDS011;25173;50.430;18.926;2022-11-20T05:00:32;220.77;;;121.75;;
39486;SDS011;25173;50.430;18.926;2022-11-20T05:03:33;204.32;;;115.00;;
39486;SDS011;25173;50.430;18.926;2022-11-20T05:06:33;201.73;;;113.75;;
39486;SDS011;25173;50.430;18.926;2022-11-20T05:09:34;217.50;;;120.05;;
39486;SDS011;25173;50.430;18.926;2022-11-20T05:12:35;216.45;;;117.75;;
39486;SDS011;25173;50.430;18.926;2022-11-20T05:15:35;214.88;;;130.57;;
39486;SDS011;25173;50.430;18.926;2022-11-20T05:18:36;213.70;;;123.13;;
39486;SDS011;25173;50.430;18.926;2022-11-20T05:21:38;217.32;;;131.98;;
39486;SDS011;25173;50.430;18.926;2022-11-20T05:24:38;217.25;;;127.57;;
39486;SDS011;25173;50.430;18.926;2022-11-20T05:27:39;193.07;;;115.10;;
39486;SDS011;25173;50.430;18.926;2022-11-20T05:30:39;198.85;;;116.15;;
39486;SDS011;25173;50.430;18.926;2022-11-20T05:33:41;199.90;;;110.60;;
39486;SDS011;25173;50.430;18.926;2022-11-20T05:36:42;200.90;;;114.05;;
39486;SDS011;25173;50.430;18.926;2022-11-20T05:39:43;197.30;;;113.55;;
39486;SDS011;25173;50.430;18.926;2022-11-20T05:42:43;207.90;;;117.00;;
39486;SDS011;25173;50.430;18.926;2022-11-20T05:45:51;202.13;;;115.20;;
39486;SDS011;25173;50.430;18.926;2022-11-20T05:48:53;200.68;;;112.00;;
39486;SDS011;25173;50.430;18.926;2022-11-20T05:51:53;191.57;;;110.13;;
39486;SDS011;25173;50.430;18.926;2022-11-20T05:54:54;196.57;;;111.20;;
39486;SDS011;25173;50.430;18.926;2022-11-20T05:57:54;179.10;;;103.78;;
39486;SDS011;25173;50.430;18.926;2022-11-20T06:01:02;189.27;;;109.68;;
39486;SDS011;25173;50.430;18.926;2022-11-20T06:04:08;187.32;;;108.93;;
39486;SDS011;25173;50.430;18.926;2022-11-20T06:07:09;188.07;;;110.47;;
39486;SDS011;25173;50.430;18.926;2022-11-20T06:10:10;185.73;;;105.57;;
39486;SDS011;25173;50.430;18.926;2022-11-20T06:13:11;178.02;;;102.65;;
39486;SDS011;25173;50.430;18.926;2022-11-20T06:16:13;175.93;;;101.13;;
39486;SDS011;25173;50.430;18.926;2022-11-20T06:19:15;186.85;;;103.78;;
39486;SDS011;25173;50.430;18.926;2022-11-20T06:22:17;179.77;;;101.15;;
39486;SDS011;25173;50.430;18.926;2022-11-20T06:25:22;180.52;;;100.75;;
39486;SDS011;25173;50.430;18.926;2022-11-20T06:28:22;168.40;;;93.80;;
39486;SDS011;25173;50.430;18.926;2022-11-20T06:31:24;171.70;;;98.80;;
39486;SDS011;25173;50.430;18.926;2022-11-20T06:34:25;169.27;;;96.43;;
39486;SDS011;25173;50.430;18.926;2022-11-20T06:37:26;170.18;;;97.38;;
39486;SDS011;25173;50.430;18.926;2022-11-20T06:40:26;179.13;;;97.82;;
39486;SDS011;25173;50.430;18.926;2022-11-20T06:43:28;163.70;;;96.25;;
39486;SDS011;25173;50.430;18.926;2022-11-20T06:46:29;177.13;;;99.60;;
39486;SDS011;25173;50.430;18.926;2022-11-20T06:49:29;181.32;;;102.82;;
39486;SDS011;25173;50.430;18.926;2022-11-20T06:52:30;185.23;;;102.15;;
39486;SDS011;25173;50.430;18.926;2022-11-20T06:55:31;175.13;;;99.20;;
39486;SDS011;25173;50.430;18.926;2022-11-20T06:58:32;175.10;;;100.20;;
39486;SDS011;25173;50.430;18.926;2022-11-20T07:01:34;190.68;;;106.05;;
39486;SDS011;25173;50.430;18.926;2022-11-20T07:04:35;232.40;;;133.48;;
39486;SDS011;25173;50.430;18.926;2022-11-20T07:07:35;274.10;;;154.68;;
39486;SDS011;25173;50.430;18.926;2022-11-20T07:10:36;309.15;;;177.95;;
39486;SDS011;25173;50.430;18.926;2022-11-20T07:13:37;275.92;;;156.82;;
39486;SDS011;25173;50.430;18.926;2022-11-20T07:16:37;257.13;;;142.48;;
39486;SDS011;25173;50.430;18.926;2022-11-20T07:19:38;257.33;;;143.63;;
39486;SDS011;25173;50.430;18.926;2022-11-20T07:22:38;258.55;;;142.20;;
39486;SDS011;25173;50.430;18.926;2022-11-20T07:25:39;269.83;;;152.45;;
39486;SDS011;25173;50.430;18.926;2022-11-20T07:28:40;259.63;;;147.70;;
39486;SDS011;25173;50.430;18.926;2022-11-20T07:31:40;258.13;;;146.48;;
39486;SDS011;25173;50.430;18.926;2022-11-20T07:34:41;249.23;;;141.32;;
39486;SDS011;25173;50.430;18.926;2022-11-20T07:37:42;246.93;;;146.65;;
39486;SDS011;25173;50.430;18.926;2022-11-20T07:40:42;254.05;;;143.82;;
39486;SDS011;25173;50.430;18.926;2022-11-20T07:43:43;268.70;;;157.13;;
39486;SDS011;25173;50.430;18.926;2022-11-20T07:46:43;252.50;;;150.60;;
39486;SDS011;25173;50.430;18.926;2022-11-20T07:49:44;236.00;;;137.25;;
39486;SDS011;25173;50.430;18.926;2022-11-20T07:52:45;195.70;;;110.50;;
39486;SDS011;25173;50.430;18.926;2022-11-20T07:55:45;183.05;;;102.65;;
39486;SDS011;25173;50.430;18.926;2022-11-20T07:58:46;169.27;;;95.22;;
39486;SDS011;25173;50.430;18.926;2022-11-20T08:01:47;142.80;;;84.63;;
39486;SDS011;25173;50.430;18.926;2022-11-20T08:04:47;148.52;;;86.03;;
39486;SDS011;25173;50.430;18.926;2022-11-20T08:07:48;145.00;;;83.22;;
39486;SDS011;25173;50.430;18.926;2022-11-20T08:10:49;146.32;;;80.18;;
39486;SDS011;25173;50.430;18.926;2022-11-20T08:13:49;135.10;;;79.68;;
39486;SDS011;25173;50.430;18.926;2022-11-20T08:17:08;146.90;;;84.25;;
39486;SDS011;25173;50.430;18.926;2022-11-20T08:20:10;147.23;;;81.70;;
39486;SDS011;25173;50.430;18.926;2022-11-20T08:23:10;145.00;;;84.07;;
39486;SDS011;25173;50.430;18.926;2022-11-20T08:26:11;148.85;;;82.85;;
39486;SDS011;25173;50.430;18.926;2022-11-20T08:29:12;144.48;;;84.07;;
39486;SDS011;25173;50.430;18.926;2022-11-20T08:32:12;148.88;;;84.80;;
39486;SDS011;25173;50.430;18.926;2022-11-20T08:35:13;135.90;;;79.90;;
39486;SDS011;25173;50.430;18.926;2022-11-20T08:38:14;116.68;;;73.25;;
39486;SDS011;25173;50.430;18.926;2022-11-20T08:41:14;131.50;;;76.18;;
39486;SDS011;25173;50.430;18.926;2022-11-20T08:44:25;138.52;;;80.25;;
39486;SDS011;25173;50.430;18.926;2022-11-20T08:47:26;153.68;;;88.25;;
39486;SDS011;25173;50.430;18.926;2022-11-20T08:50:26;142.35;;;86.43;;
39486;SDS011;25173;50.430;18.926;2022-11-20T08:53:27;168.60;;;97.53;;
39486;SDS011;25173;50.430;18.926;2022-11-20T08:56:28;146.68;;;84.20;;
39486;SDS011;25173;50.430;18.926;2022-11-20T08:59:28;146.55;;;88.40;;
39486;SDS011;25173;50.430;18.926;2022-11-20T09:02:31;138.15;;;82.78;;
39486;SDS011;25173;50.430;18.926;2022-11-20T09:05:32;131.73;;;76.10;;
39486;SDS011;25173;50.430;18.926;2022-11-20T09:08:33;128.90;;;74.95;;
39486;SDS011;25173;50.430;18.926;2022-11-20T09:11:35;143.38;;;83.55;;
39486;SDS011;25173;50.430;18.926;2022-11-20T09:14:36;132.23;;;76.82;;
39486;SDS011;25173;50.430;18.926;2022-11-20T09:17:36;137.93;;;78.50;;
39486;SDS011;25173;50.430;18.926;2022-11-20T09:20:37;137.60;;;79.80;;
39486;SDS011;25173;50.430;18.926;2022-11-20T09:23:38;141.30;;;81.78;;
39486;SDS011;25173;50.430;18.926;2022-11-20T09:26:39;147.23;;;83.47;;
39486;SDS011;25173;50.430;18.926;2022-11-20T09:29:40;138.82;;;80.22;;
39486;SDS011;25173;50.430;18.926;2022-11-20T09:32:41;144.55;;;79.85;;
39486;SDS011;25173;50.430;18.926;2022-11-20T09:35:42;140.65;;;81.72;;
39486;SDS011;25173;50.430;18.926;2022-11-20T09:38:46;134.43;;;79.55;;
39486;SDS011;25173;50.430;18.926;2022-11-20T09:45:11;146.85;;;84.80;;
39486;SDS011;25173;50.430;18.926;2022-11-20T09:54:51;151.25;;;87.22;;
39486;SDS011;25173;50.430;18.926;2022-11-20T09:57:54;142.93;;;82.80;;
39486;SDS011;25173;50.430;18.926;2022-11-20T10:01:00;131.90;;;76.40;;
39486;SDS011;25173;50.430;18.926;2022-11-20T10:04:12;133.38;;;77.65;;
39486;SDS011;25173;50.430;18.926;2022-11-20T10:07:19;129.48;;;74.10;;
39486;SDS011;25173;50.430;18.926;2022-11-20T10:13:36;127.00;;;76.32;;
39486;SDS011;25173;50.430;18.926;2022-11-20T10:17:49;126.70;;;71.88;;
39486;SDS011;25173;50.430;18.926;2022-11-20T10:30:15;114.75;;;71.50;;
39486;SDS011;25173;50.430;18.926;2022-11-20T10:33:21;100.28;;;63.25;;
39486;SDS011;25173;50.430;18.926;2022-11-20T10:36:26;96.97;;;58.92;;
39486;SDS011;25173;50.430;18.926;2022-11-20T10:49:16;96.20;;;60.15;;
39486;SDS011;25173;50.430;18.926;2022-11-20T10:55:45;105.07;;;63.45;;
39486;SDS011;25173;50.430;18.926;2022-11-20T10:59:03;101.75;;;61.13;;
39486;SDS011;25173;50.430;18.926;2022-11-20T11:02:23;122.82;;;71.25;;
39486;SDS011;25173;50.430;18.926;2022-11-20T11:05:42;80.93;;;49.30;;
39486;SDS011;25173;50.430;18.926;2022-11-20T11:08:49;62.25;;;38.65;;
39486;SDS011;25173;50.430;18.926;2022-11-20T11:11:53;67.43;;;40.22;;
39486;SDS011;25173;50.430;18.926;2022-11-20T11:14:57;74.55;;;46.45;;
39486;SDS011;25173;50.430;18.926;2022-11-20T11:17:58;60.20;;;38.28;;
39486;SDS011;25173;50.430;18.926;2022-11-20T11:21:02;80.70;;;46.75;;
39486;SDS011;25173;50.430;18.926;2022-11-20T11:24:04;73.88;;;45.58;;
39486;SDS011;25173;50.430;18.926;2022-11-20T11:27:10;65.72;;;40.10;;
39486;SDS011;25173;50.430;18.926;2022-11-20T11:30:14;68.53;;;43.03;;
39486;SDS011;25173;50.430;18.926;2022-11-20T11:33:20;75.03;;;46.92;;
39486;SDS011;25173;50.430;18.926;2022-11-20T11:36:22;74.25;;;45.25;;
39486;SDS011;25173;50.430;18.926;2022-11-20T11:39:26;63.58;;;40.70;;
39486;SDS011;25173;50.430;18.926;2022-11-20T11:42:28;70.28;;;41.75;;
39486;SDS011;25173;50.430;18.926;2022-11-20T11:45:30;70.72;;;40.80;;
39486;SDS011;25173;50.430;18.926;2022-11-20T11:48:31;60.90;;;37.17;;
39486;SDS011;25173;50.430;18.926;2022-11-20T11:51:36;73.68;;;41.85;;
39486;SDS011;25173;50.430;18.926;2022-11-20T12:01:35;69.53;;;40.28;;
39486;SDS011;25173;50.430;18.926;2022-11-20T12:04:45;69.00;;;41.50;;
39486;SDS011;25173;50.430;18.926;2022-11-20T12:14:33;88.90;;;55.03;;
39486;SDS011;25173;50.430;18.926;2022-11-20T12:17:37;86.85;;;51.55;;
39486;SDS011;25173;50.430;18.926;2022-11-20T12:20:39;103.10;;;58.45;;
39486;SDS011;25173;50.430;18.926;2022-11-20T12:23:49;107.63;;;66.18;;
39486;SDS011;25173;50.430;18.926;2022-11-20T12:30:14;88.95;;;53.13;;
39486;SDS011;25173;50.430;18.926;2022-11-20T12:36:36;92.28;;;55.50;;
39486;SDS011;25173;50.430;18.926;2022-11-20T12:39:40;100.82;;;57.95;;
39486;SDS011;25173;50.430;18.926;2022-11-20T12:49:46;95.13;;;55.83;;
39486;SDS011;25173;50.430;18.926;2022-11-20T12:52:57;107.20;;;64.25;;
39486;SDS011;25173;50.430;18.926;2022-11-20T12:56:11;93.78;;;55.13;;
39486;SDS011;25173;50.430;18.926;2022-11-20T13:09:15;94.75;;;55.33;;
39486;SDS011;25173;50.430;18.926;2022-11-20T13:15:54;115.38;;;62.67;;
39486;SDS011;25173;50.430;18.926;2022-11-20T13:19:01;110.82;;;63.00;;
39486;SDS011;25173;50.430;18.926;2022-11-20T13:22:03;112.40;;;63.58;;
39486;SDS011;25173;50.430;18.926;2022-11-20T13:25:08;100.63;;;63.25;;
39486;SDS011;25173;50.430;18.926;2022-11-20T13:28:26;134.13;;;73.32;;
39486;SDS011;25173;50.430;18.926;2022-11-20T13:31:35;131.00;;;72.68;;
39486;SDS011;25173;50.430;18.926;2022-11-20T13:34:39;128.30;;;77.88;;
39486;SDS011;25173;50.430;18.926;2022-11-20T13:38:01;97.55;;;59.10;;
39486;SDS011;25173;50.430;18.926;2022-11-20T13:41:22;110.47;;;64.45;;
39486;SDS011;25173;50.430;18.926;2022-11-20T13:44:35;98.88;;;62.15;;
39486;SDS011;25173;50.430;18.926;2022-11-20T13:47:46;108.10;;;68.35;;
39486;SDS011;25173;50.430;18.926;2022-11-20T13:50:55;142.82;;;83.55;;
39486;SDS011;25173;50.430;18.926;2022-11-20T14:01:08;168.35;;;100.85;;
39486;SDS011;25173;50.430;18.926;2022-11-20T14:04:14;209.05;;;120.95;;
39486;SDS011;25173;50.430;18.926;2022-11-20T14:07:18;169.50;;;99.32;;
39486;SDS011;25173;50.430;18.926;2022-11-20T14:13:22;151.27;;;91.72;;
39486;SDS011;25173;50.430;18.926;2022-11-20T14:16:23;161.27;;;95.22;;
39486;SDS011;25173;50.430;18.926;2022-11-20T14:19:29;174.85;;;101.25;;
39486;SDS011;25173;50.430;18.926;2022-11-20T14:25:31;154.05;;;93.30;;
39486;SDS011;25173;50.430;18.926;2022-11-20T14:28:32;143.32;;;87.20;;
39486;SDS011;25173;50.430;18.926;2022-11-20T14:31:32;157.18;;;88.55;;
39486;SDS011;25173;50.430;18.926;2022-11-20T14:34:35;147.40;;;81.38;;
39486;SDS011;25173;50.430;18.926;2022-11-20T14:40:41;196.05;;;102.75;;
39486;SDS011;25173;50.430;18.926;2022-11-20T14:43:45;208.85;;;112.93;;
39486;SDS011;25173;50.430;18.926;2022-11-20T14:46:46;175.25;;;97.72;;
39486;SDS011;25173;50.430;18.926;2022-11-20T14:49:48;200.68;;;108.30;;
39486;SDS011;25173;50.430;18.926;2022-11-20T14:52:51;225.13;;;119.28;;
39486;SDS011;25173;50.430;18.926;2022-11-20T14:55:57;216.43;;;124.40;;
39486;SDS011;25173;50.430;18.926;2022-11-20T14:58:59;180.57;;;104.30;;
39486;SDS011;25173;50.430;18.926;2022-11-20T15:05:09;192.43;;;112.07;;
39486;SDS011;25173;50.430;18.926;2022-11-20T15:08:10;180.82;;;105.28;;
39486;SDS011;25173;50.430;18.926;2022-11-20T15:11:19;192.95;;;114.88;;
39486;SDS011;25173;50.430;18.926;2022-11-20T15:14:26;157.15;;;91.47;;
39486;SDS011;25173;50.430;18.926;2022-11-20T15:17:28;161.15;;;93.55;;
39486;SDS011;25173;50.430;18.926;2022-11-20T15:20:31;174.20;;;98.40;;
39486;SDS011;25173;50.430;18.926;2022-11-20T15:23:33;207.52;;;113.13;;
39486;SDS011;25173;50.430;18.926;2022-11-20T15:26:34;218.35;;;114.25;;
39486;SDS011;25173;50.430;18.926;2022-11-20T15:29:35;254.02;;;131.82;;
39486;SDS011;25173;50.430;18.926;2022-11-20T15:32:35;302.25;;;154.45;;
39486;SDS011;25173;50.430;18.926;2022-11-20T15:35:36;424.55;;;225.57;;
39486;SDS011;25173;50.430;18.926;2022-11-20T15:38:37;290.48;;;144.20;;
39486;SDS011;25173;50.430;18.926;2022-11-20T15:41:37;342.67;;;171.77;;
39486;SDS011;25173;50.430;18.926;2022-11-20T15:44:38;266.48;;;127.57;;
39486;SDS011;25173;50.430;18.926;2022-11-20T15:47:39;217.50;;;106.78;;
39486;SDS011;25173;50.430;18.926;2022-11-20T15:50:59;190.10;;;91.47;;
39486;SDS011;25173;50.430;18.926;2022-11-20T15:54:11;242.35;;;121.82;;
39486;SDS011;25173;50.430;18.926;2022-11-20T15:57:14;170.77;;;95.18;;
39486;SDS011;25173;50.430;18.926;2022-11-20T16:00:15;184.95;;;104.30;;
39486;SDS011;25173;50.430;18.926;2022-11-20T16:03:16;176.75;;;101.55;;
39486;SDS011;25173;50.430;18.926;2022-11-20T16:06:17;145.60;;;77.28;;
39486;SDS011;25173;50.430;18.926;2022-11-20T16:09:18;140.60;;;77.60;;
39486;SDS011;25173;50.430;18.926;2022-11-20T16:12:18;138.00;;;73.40;;
39486;SDS011;25173;50.430;18.926;2022-11-20T16:15:37;136.05;;;73.18;;
39486;SDS011;25173;50.430;18.926;2022-11-20T16:18:46;127.75;;;68.45;;
39486;SDS011;25173;50.430;18.926;2022-11-20T16:21:47;104.53;;;56.22;;
39486;SDS011;25173;50.430;18.926;2022-11-20T16:24:48;125.57;;;65.53;;
39486;SDS011;25173;50.430;18.926;2022-11-20T16:27:48;117.05;;;61.17;;
39486;SDS011;25173;50.430;18.926;2022-11-20T16:30:49;98.25;;;53.08;;
39486;SDS011;25173;50.430;18.926;2022-11-20T16:33:50;104.40;;;56.00;;
39486;SDS011;25173;50.430;18.926;2022-11-20T16:36:52;122.15;;;66.90;;
39486;SDS011;25173;50.430;18.926;2022-11-20T16:39:52;130.73;;;70.40;;
39486;SDS011;25173;50.430;18.926;2022-11-20T16:42:53;112.07;;;62.22;;
39486;SDS011;25173;50.430;18.926;2022-11-20T16:45:53;114.82;;;62.50;;
39486;SDS011;25173;50.430;18.926;2022-11-20T16:51:56;168.80;;;84.70;;
39486;SDS011;25173;50.430;18.926;2022-11-20T16:54:57;195.18;;;102.53;;
39486;SDS011;25173;50.430;18.926;2022-11-20T16:57:58;138.93;;;71.95;;
39486;SDS011;25173;50.430;18.926;2022-11-20T17:01:04;145.15;;;79.57;;
39486;SDS011;25173;50.430;18.926;2022-11-20T17:04:05;112.03;;;66.18;;
39486;SDS011;25173;50.430;18.926;2022-11-20T17:07:07;103.43;;;57.53;;
39486;SDS011;25173;50.430;18.926;2022-11-20T17:10:07;115.93;;;67.18;;
39486;SDS011;25173;50.430;18.926;2022-11-20T17:13:10;111.50;;;63.80;;
39486;SDS011;25173;50.430;18.926;2022-11-20T17:16:11;95.22;;;55.00;;
39486;SDS011;25173;50.430;18.926;2022-11-20T17:19:14;103.28;;;59.03;;
39486;SDS011;25173;50.430;18.926;2022-11-20T17:22:15;95.35;;;54.25;;
39486;SDS011;25173;50.430;18.926;2022-11-20T17:25:15;106.60;;;57.63;;
39486;SDS011;25173;50.430;18.926;2022-11-20T17:28:16;102.30;;;56.17;;
39486;SDS011;25173;50.430;18.926;2022-11-20T17:31:17;98.85;;;55.97;;
39486;SDS011;25173;50.430;18.926;2022-11-20T17:34:17;123.95;;;72.65;;
39486;SDS011;25173;50.430;18.926;2022-11-20T17:37:18;143.43;;;82.97;;
39486;SDS011;25173;50.430;18.926;2022-11-20T17:40:18;129.75;;;72.40;;
39486;SDS011;25173;50.430;18.926;2022-11-20T17:43:19;144.05;;;77.68;;
39486;SDS011;25173;50.430;18.926;2022-11-20T17:46:22;130.77;;;71.18;;
39486;SDS011;25173;50.430;18.926;2022-11-20T17:49:24;763.08;;;438.15;;
39486;SDS011;25173;50.430;18.926;2022-11-20T17:52:25;172.75;;;100.68;;
39486;SDS011;25173;50.430;18.926;2022-11-20T17:55:26;164.20;;;94.68;;
39486;SDS011;25173;50.430;18.926;2022-11-20T17:58:46;265.45;;;153.52;;
39486;SDS011;25173;50.430;18.926;2022-11-20T18:01:47;221.85;;;132.43;;
39486;SDS011;25173;50.430;18.926;2022-11-20T18:04:48;185.98;;;107.55;;
39486;SDS011;25173;50.430;18.926;2022-11-20T18:07:51;122.20;;;72.50;;
39486;SDS011;25173;50.430;18.926;2022-11-20T18:10:52;140.93;;;82.47;;
39486;SDS011;25173;50.430;18.926;2022-11-20T18:13:54;197.45;;;118.70;;
39486;SDS011;25173;50.430;18.926;2022-11-20T18:17:15;174.05;;;97.07;;
39486;SDS011;25173;50.430;18.926;2022-11-20T18:20:17;144.40;;;83.30;;
39486;SDS011;25173;50.430;18.926;2022-11-20T18:23:18;435.42;;;258.08;;
39486;SDS011;25173;50.430;18.926;2022-11-20T18:26:26;428.05;;;238.80;;
39486;SDS011;25173;50.430;18.926;2022-11-20T18:29:27;265.13;;;143.68;;
39486;SDS011;25173;50.430;18.926;2022-11-20T18:32:28;161.50;;;91.03;;
39486;SDS011;25173;50.430;18.926;2022-11-20T18:35:28;118.57;;;66.22;;
39486;SDS011;25173;50.430;18.926;2022-11-20T18:38:29;99.55;;;57.85;;
39486;SDS011;25173;50.430;18.926;2022-11-20T18:41:30;85.18;;;51.05;;
39486;SDS011;25173;50.430;18.926;2022-11-20T18:44:49;109.80;;;55.00;;
39486;SDS011;25173;50.430;18.926;2022-11-20T18:47:50;147.77;;;70.18;;
39486;SDS011;25173;50.430;18.926;2022-11-20T18:50:51;90.97;;;50.67;;
39486;SDS011;25173;50.430;18.926;2022-11-20T18:53:51;90.47;;;48.15;;
39486;SDS011;25173;50.430;18.926;2022-11-20T18:56:52;95.10;;;54.15;;
39486;SDS011;25173;50.430;18.926;2022-11-20T18:59:53;76.63;;;46.67;;
39486;SDS011;25173;50.430;18.926;2022-11-20T19:02:54;79.30;;;43.38;;